createdAt,value
2019-03-16T00:04:08.976Z,10.40
2019-03-16T00:09:10.861Z,8.93
2019-03-16T00:14:13.114Z,10.37
2019-03-16T00:19:15.097Z,13.00
2019-03-16T00:24:17.312Z,14.33
2019-03-16T00:29:19.272Z,10.13
2019-03-16T00:34:21.804Z,11.00
2019-03-16T00:39:24.279Z,11.07
2019-03-16T00:44:26.789Z,7.73
2019-03-16T00:49:29.039Z,11.73
2019-03-16T00:54:31.464Z,11.67
2019-03-16T00:59:33.460Z,12.40
2019-03-16T01:04:35.383Z,15.60
2019-03-16T01:09:37.205Z,18.00
2019-03-16T01:14:39.790Z,15.17
2019-03-16T01:19:41.731Z,10.53
2019-03-16T01:24:44.139Z,18.30
2019-03-16T01:29:46.200Z,16.90
2019-03-16T01:34:48.365Z,15.60
2019-03-16T01:39:50.274Z,10.60
2019-03-16T01:44:52.589Z,13.73
2019-03-16T01:49:54.549Z,16.97
2019-03-16T01:54:56.494Z,19.63
2019-03-16T01:59:58.490Z,22.77
2019-03-16T02:05:00.473Z,15.63
2019-03-16T02:10:03.064Z,13.00
2019-03-16T02:15:05.083Z,13.93
2019-03-16T02:20:07.876Z,16.83
2019-03-16T02:25:10.664Z,16.43
2019-03-16T02:30:12.971Z,14.83
2019-03-16T02:35:16.078Z,22.87
2019-03-16T02:40:18.033Z,16.20
2019-03-16T02:45:20.976Z,14.27
2019-03-16T02:50:23.550Z,13.97
2019-03-16T02:55:25.837Z,15.43
2019-03-16T03:00:27.779Z,20.17
2019-03-16T03:05:29.732Z,17.70
2019-03-16T03:10:33.469Z,18.93
2019-03-16T03:15:35.341Z,17.10
2019-03-16T03:20:37.589Z,12.90
2019-03-16T03:25:40.243Z,18.37
2019-03-16T03:30:42.468Z,9.03
2019-03-16T03:35:44.434Z,13.83
2019-03-16T03:40:46.380Z,12.90
2019-03-16T03:45:48.576Z,12.40
2019-03-16T03:50:51.109Z,14.33
2019-03-16T03:55:53.041Z,19.87
2019-03-16T04:00:55.093Z,12.87
2019-03-16T04:05:57.097Z,13.40
2019-03-16T04:10:58.910Z,12.03
2019-03-16T04:16:01.020Z,15.60
2019-03-16T04:21:03.215Z,15.30
2019-03-16T04:26:05.988Z,12.33
2019-03-16T04:31:07.946Z,13.90
2019-03-16T04:36:10.112Z,14.87
2019-03-16T04:41:12.508Z,13.70
2019-03-16T04:46:14.324Z,12.37
2019-03-16T04:51:16.159Z,15.33
2019-03-16T04:56:18.557Z,18.40
2019-03-16T05:01:21.072Z,13.50
2019-03-16T05:06:23.009Z,14.87
2019-03-16T05:11:24.973Z,14.50
2019-03-16T05:16:26.898Z,12.70
2019-03-16T05:21:28.808Z,17.63
2019-03-16T05:26:30.664Z,10.93
2019-03-16T05:31:33.526Z,12.13
2019-03-16T05:36:35.424Z,24.90
2019-03-16T05:41:37.595Z,15.60
2019-03-16T05:46:39.698Z,14.00
2019-03-16T05:51:42.132Z,11.97
2019-03-16T05:56:44.275Z,17.60
2019-03-16T06:01:46.505Z,18.67
2019-03-16T06:06:48.827Z,16.17
2019-03-16T06:11:51.596Z,26.10
2019-03-16T06:16:53.841Z,15.60
2019-03-16T06:21:56.709Z,14.93
2019-03-16T06:26:58.780Z,16.23
2019-03-16T06:32:01.289Z,16.67
2019-03-16T06:37:04.309Z,11.87
2019-03-16T06:42:06.269Z,17.87
2019-03-16T06:47:09.511Z,16.73
2019-03-16T06:52:11.761Z,11.70
2019-03-16T06:57:14.359Z,19.40
2019-03-16T07:02:16.470Z,15.27
2019-03-16T07:07:18.590Z,13.33
2019-03-16T07:12:20.509Z,19.37
2019-03-16T07:17:22.545Z,15.07
2019-03-16T07:22:24.413Z,18.87
2019-03-16T07:27:26.728Z,16.77
2019-03-16T07:32:29.955Z,15.93
2019-03-16T07:37:31.836Z,17.70
2019-03-16T07:42:35.148Z,12.27
2019-03-16T07:47:37.105Z,17.53
2019-03-16T07:52:39.436Z,15.10
2019-03-16T07:57:42.432Z,16.33
2019-03-16T08:02:44.551Z,16.63
2019-03-16T08:07:46.458Z,18.10
2019-03-16T08:12:48.586Z,15.93
2019-03-16T08:17:51.180Z,17.70
2019-03-16T08:22:54.156Z,15.50
2019-03-16T08:27:56.872Z,15.70
2019-03-16T08:32:58.984Z,21.37
2019-03-16T08:38:01.065Z,16.03
2019-03-16T08:43:03.428Z,15.53
2019-03-16T08:48:05.506Z,13.57
2019-03-16T08:53:08.695Z,11.83
2019-03-16T08:58:11.595Z,13.70
2019-03-16T09:03:13.521Z,16.27
2019-03-16T09:08:15.779Z,13.80
2019-03-16T09:13:17.964Z,15.83
2019-03-16T09:18:20.063Z,19.93
2019-03-16T09:23:22.305Z,15.17
2019-03-16T09:28:25.123Z,17.00
2019-03-16T09:33:27.022Z,14.70
2019-03-16T09:38:29.499Z,16.47
2019-03-16T09:43:31.554Z,15.93
2019-03-16T09:48:33.525Z,13.27
2019-03-16T09:53:35.335Z,16.40
2019-03-16T09:58:37.420Z,11.97
2019-03-16T10:03:39.752Z,13.13
2019-03-16T10:08:42.176Z,18.40
2019-03-16T10:13:44.434Z,14.30
2019-03-16T10:18:48.126Z,19.50
2019-03-16T10:23:50.075Z,14.70
2019-03-16T10:28:52.165Z,9.80
2019-03-16T10:33:54.253Z,13.60
2019-03-16T10:38:56.729Z,16.87
2019-03-16T10:43:59.915Z,10.50
2019-03-16T10:49:01.733Z,10.80
2019-03-16T10:54:04.622Z,14.40
2019-03-16T10:59:07.831Z,11.13
2019-03-16T11:04:10.452Z,15.57
2019-03-16T11:09:13.033Z,9.00
2019-03-16T11:14:14.865Z,9.13
2019-03-16T11:19:16.776Z,13.43
2019-03-16T11:24:19.992Z,15.10
2019-03-16T11:29:22.472Z,12.50
2019-03-16T11:34:25.968Z,7.83
2019-03-16T11:39:28.480Z,6.67
2019-03-16T11:44:30.873Z,4.73
2019-03-16T11:49:32.817Z,8.23
2019-03-16T11:54:34.913Z,6.13
2019-03-16T11:59:37.121Z,6.87
2019-03-16T12:04:39.904Z,7.50
2019-03-16T12:09:41.791Z,4.43
2019-03-16T12:14:43.849Z,4.33
2019-03-16T12:19:45.826Z,4.50
2019-03-16T12:24:48.095Z,5.33
2019-03-16T12:29:50.569Z,6.10
2019-03-16T12:34:52.717Z,3.57
2019-03-16T12:39:54.906Z,3.60
2019-03-16T12:44:57.702Z,4.33
2019-03-16T12:50:00.174Z,4.57
2019-03-16T12:55:02.624Z,3.67
2019-03-16T13:00:08.060Z,4.17
2019-03-16T13:05:10.309Z,7.40
2019-03-16T13:10:12.403Z,5.57
2019-03-16T13:15:14.779Z,5.17
2019-03-16T13:20:17.297Z,5.80
2019-03-16T13:25:19.299Z,5.03
2019-03-16T13:30:22.149Z,5.17
2019-03-16T13:35:24.872Z,3.57
2019-03-16T13:40:27.961Z,4.23
2019-03-16T13:45:29.951Z,3.63
2019-03-16T13:50:31.872Z,5.13
2019-03-16T13:55:34.110Z,3.87
2019-03-16T14:00:36.434Z,4.23
2019-03-16T14:05:39.940Z,1.93
2019-03-16T14:10:42.113Z,3.20
2019-03-16T14:15:44.033Z,2.83
2019-03-16T14:20:45.995Z,1.77
2019-03-16T14:25:48.063Z,4.50
2019-03-16T14:30:50.759Z,3.60
2019-03-16T14:35:52.992Z,2.43
2019-03-16T14:40:55.232Z,2.97
2019-03-16T14:45:57.803Z,4.13
2019-03-16T14:51:00.573Z,7.47
2019-03-16T14:56:02.528Z,3.90
2019-03-16T15:01:04.645Z,3.27
2019-03-16T15:06:06.649Z,2.83
2019-03-16T15:11:10.113Z,2.60
2019-03-16T15:16:12.078Z,4.20
2019-03-16T15:21:14.559Z,4.77
2019-03-16T15:26:17.457Z,3.57
2019-03-16T15:31:22.466Z,4.77
2019-03-16T15:36:24.032Z,4.40
2019-03-16T15:41:26.174Z,3.87
2019-03-16T15:46:28.372Z,4.37
2019-03-16T15:51:31.003Z,3.50
2019-03-16T15:56:32.840Z,4.10
2019-03-16T16:01:36.616Z,4.13
2019-03-16T16:06:38.827Z,4.07
2019-03-16T16:11:40.750Z,4.03
2019-03-16T16:16:42.749Z,4.20
2019-03-16T16:21:45.129Z,6.17
2019-03-16T16:26:48.064Z,4.33
2019-03-16T16:31:50.750Z,7.20
2019-03-16T16:36:52.799Z,8.30
2019-03-16T16:41:54.755Z,6.77
2019-03-16T16:46:57.297Z,6.50
2019-03-16T16:51:59.991Z,6.80
2019-03-16T16:57:02.169Z,9.67
2019-03-16T17:02:04.121Z,9.80
2019-03-16T17:07:05.907Z,14.40
2019-03-16T17:12:08.222Z,15.73
2019-03-16T17:17:10.176Z,20.93
2019-03-16T17:22:12.393Z,19.20
2019-03-16T17:27:14.673Z,24.37
2019-03-16T17:32:16.446Z,23.97
2019-03-16T17:37:19.572Z,23.80
2019-03-16T17:42:21.920Z,22.87
2019-03-16T17:47:23.792Z,22.57
2019-03-16T17:52:26.063Z,15.67
2019-03-16T17:57:28.424Z,17.57
2019-03-16T18:02:30.544Z,19.37
2019-03-16T18:07:32.457Z,16.20
2019-03-16T18:12:34.956Z,17.17
2019-03-16T18:17:37.420Z,17.47
2019-03-16T18:22:40.210Z,18.73
2019-03-16T18:27:42.236Z,18.63
2019-03-16T18:32:44.099Z,18.40
2019-03-16T18:37:46.168Z,19.67
2019-03-16T18:42:48.951Z,20.27
2019-03-16T18:47:51.498Z,21.50
2019-03-16T18:52:54.039Z,19.07
2019-03-16T18:57:56.870Z,18.50
2019-03-16T19:03:12.085Z,20.40
2019-03-16T19:08:14.009Z,16.70
2019-03-16T19:13:16.326Z,20.97
2019-03-16T19:18:19.218Z,18.57
2019-03-16T19:23:21.732Z,20.13
2019-03-16T19:28:24.655Z,18.27
2019-03-16T19:33:27.295Z,17.97
2019-03-16T19:38:29.694Z,17.53
2019-03-16T19:43:31.652Z,17.43
2019-03-16T19:48:33.451Z,15.33
2019-03-16T19:53:35.367Z,16.13
2019-03-16T19:58:38.945Z,15.73
2019-03-16T20:03:41.437Z,16.30
2019-03-16T20:08:43.381Z,13.10
2019-03-16T20:13:45.485Z,12.37
2019-03-16T20:18:47.579Z,11.33
2019-03-16T20:23:51.635Z,8.90
2019-03-16T20:28:53.522Z,10.67
2019-03-16T20:33:56.261Z,10.13
2019-03-16T20:38:59.127Z,8.80
2019-03-16T20:44:01.400Z,11.70
2019-03-16T20:49:04.144Z,11.57
2019-03-16T20:54:06.073Z,11.37
2019-03-16T20:59:07.931Z,10.63
2019-03-16T21:04:09.786Z,9.87
2019-03-16T21:09:12.225Z,11.07
2019-03-16T21:14:14.376Z,11.87
2019-03-16T21:19:16.151Z,10.33
2019-03-16T21:24:18.641Z,8.13
2019-03-16T21:29:20.925Z,7.87
2019-03-16T21:34:23.414Z,6.10
2019-03-16T21:39:25.707Z,9.03
2019-03-16T21:44:27.669Z,4.67
2019-03-16T21:49:29.671Z,4.37
2019-03-16T21:54:31.552Z,5.67
2019-03-16T21:59:34.036Z,4.57
2019-03-16T22:04:35.995Z,5.27
2019-03-16T22:09:38.598Z,4.77
2019-03-16T22:14:41.103Z,4.77
2019-03-16T22:19:43.148Z,4.77
2019-03-16T22:24:45.477Z,4.07
2019-03-16T22:29:47.379Z,3.93
2019-03-16T22:34:49.320Z,5.37
2019-03-16T22:39:51.264Z,5.33
2019-03-16T22:44:54.310Z,4.60
2019-03-16T22:49:57.109Z,4.43
2019-03-16T22:55:00.454Z,3.73
2019-03-16T23:00:05.541Z,3.90
2019-03-16T23:05:10.384Z,4.80
2019-03-16T23:10:12.697Z,4.33
2019-03-16T23:15:14.906Z,4.57
2019-03-16T23:20:17.287Z,3.97
2019-03-16T23:25:19.229Z,3.83
2019-03-16T23:30:21.587Z,5.40
2019-03-16T23:35:24.635Z,3.63
2019-03-16T23:40:26.634Z,3.90
2019-03-16T23:45:28.800Z,7.57
2019-03-16T23:50:31.172Z,4.53
2019-03-16T23:55:32.996Z,4.70
